CEB5263 VHHH-RPMD
Flight info
| Callsign | CEB5263 |
|---|---|
| Flight time | N/A |
| Altitude | 39000 |
| Route | DALOL V641 NOMAN A461 AVMUP W16 MIA W11 MCT W14 BN W9 RIMAR RIMAR2R |
| Aircraft | A339/H-SADE1E2E3GHIJ3J5M1P2RWXY/LB2D1 |
Departure
| Time | N/A |
|---|---|
| Airport | Hong Kong International Airport (VHHH) |
Arrival
| Time | 2026-04-30 10:56 |
|---|---|
| Airport | Francisco Bangoy International Airport (RPMD) |
| Time | Latitude | Longitude | Altitude | Speed | Heading |
|---|---|---|---|---|---|
| 2026-04-30 10:07 | 9.87672 | 124.47200 | 38869 ft | 454 kts | 131° |
| 2026-04-30 10:07 | 9.72971 | 124.63441 | 38869 ft | 453 kts | 131° |
| 2026-04-30 10:08 | 9.68691 | 124.68169 | 38856 ft | 452 kts | 131° |
| 2026-04-30 10:08 | 9.64443 | 124.72864 | 38848 ft | 452 kts | 131° |
| 2026-04-30 10:09 | 9.60193 | 124.77564 | 38851 ft | 452 kts | 131° |
| 2026-04-30 10:09 | 9.55939 | 124.82265 | 38848 ft | 452 kts | 131° |
| 2026-04-30 10:10 | 9.51665 | 124.86989 | 38850 ft | 453 kts | 131° |
| 2026-04-30 10:10 | 9.47393 | 124.91706 | 38848 ft | 454 kts | 131° |
| 2026-04-30 10:11 | 9.43136 | 124.96377 | 38849 ft | 454 kts | 131° |
| 2026-04-30 10:11 | 9.38788 | 125.01089 | 38665 ft | 455 kts | 131° |
| 2026-04-30 10:11 | 9.36611 | 125.03451 | 37961 ft | 459 kts | 131° |
| 2026-04-30 10:12 | 9.34456 | 125.05788 | 37242 ft | 460 kts | 131° |
| 2026-04-30 10:12 | 9.32264 | 125.08167 | 36617 ft | 459 kts | 131° |
| 2026-04-30 10:12 | 9.30091 | 125.10526 | 35972 ft | 459 kts | 131° |
| 2026-04-30 10:12 | 9.27910 | 125.12894 | 35277 ft | 459 kts | 131° |
| 2026-04-30 10:13 | 9.25747 | 125.15243 | 34631 ft | 458 kts | 131° |
| 2026-04-30 10:13 | 9.23562 | 125.17615 | 34003 ft | 457 kts | 131° |
| 2026-04-30 10:13 | 9.21396 | 125.19965 | 33407 ft | 456 kts | 131° |
| 2026-04-30 10:13 | 9.19255 | 125.22289 | 32811 ft | 454 kts | 131° |
| 2026-04-30 10:14 | 9.17097 | 125.24631 | 32229 ft | 454 kts | 131° |
| 2026-04-30 10:14 | 9.14934 | 125.26977 | 31654 ft | 453 kts | 131° |
| 2026-04-30 10:14 | 9.10636 | 125.31641 | 30769 ft | 449 kts | 131° |
| 2026-04-30 10:15 | 9.08524 | 125.33931 | 30402 ft | 446 kts | 131° |
| 2026-04-30 10:15 | 9.06410 | 125.36223 | 30029 ft | 443 kts | 131° |
| 2026-04-30 10:15 | 9.04314 | 125.38496 | 29666 ft | 440 kts | 131° |
| 2026-04-30 10:15 | 9.02213 | 125.40776 | 29307 ft | 437 kts | 131° |
| 2026-04-30 10:16 | 9.00143 | 125.43019 | 28951 ft | 433 kts | 131° |
| 2026-04-30 10:16 | 8.98108 | 125.45213 | 28600 ft | 430 kts | 133° |
| 2026-04-30 10:16 | 8.95754 | 125.47124 | 28229 ft | 430 kts | 147° |
| 2026-04-30 10:17 | 8.90058 | 125.48940 | 27483 ft | 432 kts | 171° |
| 2026-04-30 10:17 | 8.84078 | 125.49538 | 26690 ft | 427 kts | 171° |
| 2026-04-30 10:17 | 8.81090 | 125.49828 | 26286 ft | 424 kts | 171° |
| 2026-04-30 10:18 | 8.78194 | 125.50114 | 25897 ft | 421 kts | 171° |
| 2026-04-30 10:18 | 8.75249 | 125.50408 | 25507 ft | 417 kts | 171° |
| 2026-04-30 10:18 | 8.72380 | 125.50697 | 25130 ft | 414 kts | 171° |
| 2026-04-30 10:19 | 8.66643 | 125.51279 | 24381 ft | 407 kts | 171° |
| 2026-04-30 10:19 | 8.63820 | 125.51566 | 24010 ft | 404 kts | 171° |
| 2026-04-30 10:19 | 8.61038 | 125.51849 | 23635 ft | 402 kts | 171° |
| 2026-04-30 10:19 | 8.58230 | 125.52135 | 23261 ft | 399 kts | 171° |
| 2026-04-30 10:20 | 8.55467 | 125.52415 | 22889 ft | 396 kts | 171° |
| 2026-04-30 10:20 | 8.49980 | 125.52953 | 22118 ft | 393 kts | 171° |
| 2026-04-30 10:20 | 8.47240 | 125.53197 | 21744 ft | 391 kts | 171° |
| 2026-04-30 10:21 | 8.44501 | 125.53439 | 21366 ft | 389 kts | 171° |
| 2026-04-30 10:21 | 8.41830 | 125.53676 | 21001 ft | 387 kts | 171° |
| 2026-04-30 10:21 | 8.39123 | 125.53918 | 20641 ft | 385 kts | 171° |
| 2026-04-30 10:21 | 8.36471 | 125.54154 | 20290 ft | 383 kts | 171° |
| 2026-04-30 10:22 | 8.33777 | 125.54396 | 19917 ft | 381 kts | 171° |
| 2026-04-30 10:22 | 8.31121 | 125.54634 | 19537 ft | 380 kts | 171° |
| 2026-04-30 10:22 | 8.28503 | 125.54869 | 19170 ft | 379 kts | 171° |
| 2026-04-30 10:22 | 8.25876 | 125.55104 | 18793 ft | 378 kts | 171° |
| 2026-04-30 10:23 | 8.23214 | 125.55343 | 18397 ft | 377 kts | 171° |
| 2026-04-30 10:23 | 8.20567 | 125.55580 | 18002 ft | 376 kts | 171° |
| 2026-04-30 10:23 | 8.17900 | 125.55820 | 17624 ft | 374 kts | 171° |
| 2026-04-30 10:23 | 8.15304 | 125.56052 | 17249 ft | 373 kts | 171° |
| 2026-04-30 10:24 | 8.12717 | 125.56284 | 16886 ft | 371 kts | 171° |
| 2026-04-30 10:24 | 8.10132 | 125.56516 | 16524 ft | 369 kts | 171° |
| 2026-04-30 10:24 | 8.07546 | 125.56747 | 16152 ft | 368 kts | 171° |
| 2026-04-30 10:24 | 8.04973 | 125.56979 | 15763 ft | 367 kts | 171° |
| 2026-04-30 10:25 | 8.02333 | 125.57215 | 15380 ft | 366 kts | 171° |
| 2026-04-30 10:25 | 7.99713 | 125.57449 | 14981 ft | 365 kts | 172° |
| 2026-04-30 10:25 | 7.97122 | 125.57466 | 14575 ft | 368 kts | 181° |
| 2026-04-30 10:25 | 7.94586 | 125.57066 | 14200 ft | 370 kts | 191° |
| 2026-04-30 10:26 | 7.92104 | 125.56379 | 13836 ft | 369 kts | 193° |
| 2026-04-30 10:26 | 7.89619 | 125.55634 | 13451 ft | 368 kts | 193° |
| 2026-04-30 10:26 | 7.87146 | 125.54888 | 13090 ft | 366 kts | 193° |
| 2026-04-30 10:26 | 7.84715 | 125.54160 | 12746 ft | 364 kts | 193° |
| 2026-04-30 10:27 | 7.82261 | 125.53432 | 12390 ft | 361 kts | 193° |
| 2026-04-30 10:27 | 7.79847 | 125.52721 | 12035 ft | 359 kts | 193° |
| 2026-04-30 10:27 | 7.77448 | 125.52013 | 11677 ft | 357 kts | 193° |
| 2026-04-30 10:27 | 7.75061 | 125.51313 | 11331 ft | 355 kts | 193° |
| 2026-04-30 10:28 | 7.72669 | 125.50610 | 10972 ft | 354 kts | 193° |
| 2026-04-30 10:28 | 7.70304 | 125.49915 | 10612 ft | 352 kts | 193° |
| 2026-04-30 10:28 | 7.67955 | 125.49226 | 10256 ft | 350 kts | 193° |
| 2026-04-30 10:28 | 7.65628 | 125.48542 | 10106 ft | 341 kts | 193° |
| 2026-04-30 10:29 | 7.63361 | 125.47875 | 10072 ft | 328 kts | 193° |
| 2026-04-30 10:29 | 7.61204 | 125.47240 | 10033 ft | 317 kts | 193° |
| 2026-04-30 10:29 | 7.59100 | 125.46624 | 9992 ft | 306 kts | 193° |
| 2026-04-30 10:29 | 7.57075 | 125.46030 | 9792 ft | 302 kts | 193° |
| 2026-04-30 10:30 | 7.55049 | 125.45438 | 9491 ft | 302 kts | 193° |
| 2026-04-30 10:30 | 7.53036 | 125.44852 | 9212 ft | 301 kts | 193° |
| 2026-04-30 10:30 | 7.51012 | 125.44260 | 8926 ft | 301 kts | 193° |
| 2026-04-30 10:30 | 7.48979 | 125.43665 | 8638 ft | 300 kts | 193° |
| 2026-04-30 10:31 | 7.46979 | 125.43079 | 8355 ft | 299 kts | 193° |
| 2026-04-30 10:31 | 7.44979 | 125.42495 | 8072 ft | 299 kts | 194° |
| 2026-04-30 10:31 | 7.42952 | 125.41902 | 7780 ft | 299 kts | 194° |
| 2026-04-30 10:31 | 7.40952 | 125.41316 | 7495 ft | 298 kts | 194° |
| 2026-04-30 10:32 | 7.38927 | 125.40723 | 7199 ft | 298 kts | 194° |
| 2026-04-30 10:32 | 7.36927 | 125.40138 | 6916 ft | 298 kts | 194° |
| 2026-04-30 10:32 | 7.34915 | 125.39597 | 6630 ft | 296 kts | 186° |
| 2026-04-30 10:32 | 7.32854 | 125.39575 | 6340 ft | 292 kts | 169° |
| 2026-04-30 10:33 | 7.30872 | 125.39961 | 6069 ft | 290 kts | 165° |
| 2026-04-30 10:33 | 7.28889 | 125.40408 | 5794 ft | 289 kts | 165° |
| 2026-04-30 10:33 | 7.26909 | 125.40851 | 5607 ft | 285 kts | 165° |
| 2026-04-30 10:33 | 7.24996 | 125.41269 | 5592 ft | 274 kts | 166° |
| 2026-04-30 10:34 | 7.23151 | 125.41663 | 5588 ft | 263 kts | 165° |
| 2026-04-30 10:34 | 7.21372 | 125.42042 | 5580 ft | 252 kts | 165° |
| 2026-04-30 10:34 | 7.19657 | 125.42407 | 5387 ft | 251 kts | 166° |
| 2026-04-30 10:34 | 7.17920 | 125.42776 | 5067 ft | 256 kts | 166° |
| 2026-04-30 10:35 | 7.16173 | 125.43147 | 4833 ft | 256 kts | 166° |
| 2026-04-30 10:35 | 7.14414 | 125.43518 | 4636 ft | 255 kts | 166° |
| 2026-04-30 10:35 | 7.12658 | 125.43888 | 4447 ft | 254 kts | 166° |
| 2026-04-30 10:35 | 7.10933 | 125.44250 | 4277 ft | 251 kts | 166° |
| 2026-04-30 10:36 | 7.09220 | 125.44611 | 4141 ft | 247 kts | 167° |
| 2026-04-30 10:36 | 7.07540 | 125.44971 | 4072 ft | 239 kts | 163° |
| 2026-04-30 10:36 | 7.06133 | 125.45736 | 3965 ft | 233 kts | 129° |
| 2026-04-30 10:36 | 7.05306 | 125.47150 | 3611 ft | 236 kts | 111° |
| 2026-04-30 10:37 | 7.04650 | 125.48708 | 3229 ft | 244 kts | 111° |
| 2026-04-30 10:37 | 7.03939 | 125.50291 | 2854 ft | 252 kts | 114° |
| 2026-04-30 10:37 | 7.03269 | 125.51939 | 2472 ft | 257 kts | 98° |
| 2026-04-30 10:37 | 7.03396 | 125.53708 | 2230 ft | 254 kts | 68° |
| 2026-04-30 10:38 | 7.04316 | 125.55195 | 2154 ft | 246 kts | 49° |
| 2026-04-30 10:38 | 7.05519 | 125.56468 | 1887 ft | 249 kts | 46° |
| 2026-04-30 10:38 | 7.06719 | 125.57769 | 1565 ft | 253 kts | 49° |
| 2026-04-30 10:38 | 7.07865 | 125.59116 | 1246 ft | 257 kts | 50° |
| 2026-04-30 10:39 | 7.09043 | 125.60503 | 914 ft | 261 kts | 49° |
| 2026-04-30 10:39 | 7.10250 | 125.61910 | 1236 ft | 276 kts | 49° |
| 2026-04-30 10:39 | 7.11571 | 125.63440 | 2097 ft | 288 kts | 48° |
| 2026-04-30 10:39 | 7.12849 | 125.64909 | 2826 ft | 245 kts | 48° |
| 2026-04-30 10:40 | 7.13904 | 125.66132 | 3495 ft | 227 kts | 49° |
| 2026-04-30 10:40 | 7.14944 | 125.67329 | 3892 ft | 227 kts | 49° |
| 2026-04-30 10:40 | 7.15982 | 125.68520 | 4029 ft | 227 kts | 49° |
| 2026-04-30 10:40 | 7.17056 | 125.69701 | 4035 ft | 225 kts | 40° |
| 2026-04-30 10:41 | 7.18421 | 125.70466 | 4040 ft | 226 kts | 22° |
| 2026-04-30 10:41 | 7.19915 | 125.70999 | 4037 ft | 226 kts | 19° |
| 2026-04-30 10:41 | 7.21414 | 125.71484 | 4027 ft | 226 kts | 19° |
| 2026-04-30 10:41 | 7.22930 | 125.71965 | 4029 ft | 226 kts | 19° |
| 2026-04-30 10:42 | 7.24433 | 125.72439 | 4031 ft | 226 kts | 18° |
| 2026-04-30 10:42 | 7.25937 | 125.72913 | 4034 ft | 226 kts | 18° |
| 2026-04-30 10:42 | 7.27492 | 125.73264 | 4024 ft | 228 kts | 359° |
| 2026-04-30 10:42 | 7.29026 | 125.72810 | 4029 ft | 232 kts | 327° |
| 2026-04-30 10:43 | 7.30094 | 125.71574 | 4036 ft | 237 kts | 295° |
| 2026-04-30 10:43 | 7.30355 | 125.69949 | 4045 ft | 241 kts | 262° |
| 2026-04-30 10:43 | 7.29727 | 125.68391 | 4044 ft | 242 kts | 230° |
| 2026-04-30 10:43 | 7.28377 | 125.67378 | 4040 ft | 241 kts | 201° |
| 2026-04-30 10:44 | 7.26771 | 125.66863 | 4039 ft | 241 kts | 193° |
| 2026-04-30 10:44 | 7.25146 | 125.66463 | 4031 ft | 240 kts | 192° |
| 2026-04-30 10:44 | 7.23500 | 125.66080 | 4033 ft | 235 kts | 192° |
| 2026-04-30 10:44 | 7.21899 | 125.65713 | 4032 ft | 234 kts | 192° |
| 2026-04-30 10:45 | 7.20306 | 125.65351 | 4036 ft | 234 kts | 192° |
| 2026-04-30 10:45 | 7.18709 | 125.64990 | 4040 ft | 234 kts | 192° |
| 2026-04-30 10:45 | 7.17107 | 125.64631 | 4040 ft | 233 kts | 191° |
| 2026-04-30 10:45 | 7.15502 | 125.64271 | 4041 ft | 233 kts | 192° |
| 2026-04-30 10:46 | 7.13900 | 125.63915 | 4041 ft | 233 kts | 191° |
| 2026-04-30 10:46 | 7.12331 | 125.63487 | 4036 ft | 235 kts | 206° |
| 2026-04-30 10:46 | 7.11006 | 125.62485 | 4043 ft | 235 kts | 224° |
| 2026-04-30 10:46 | 7.09867 | 125.61290 | 4044 ft | 235 kts | 228° |
| 2026-04-30 10:47 | 7.08751 | 125.60048 | 4044 ft | 235 kts | 228° |
| 2026-04-30 10:47 | 7.07655 | 125.58815 | 4051 ft | 235 kts | 229° |
| 2026-04-30 10:47 | 7.06564 | 125.57585 | 4038 ft | 235 kts | 229° |
| 2026-04-30 10:47 | 7.05469 | 125.56350 | 4024 ft | 233 kts | 229° |
| 2026-04-30 10:48 | 7.04389 | 125.55131 | 3848 ft | 233 kts | 229° |
| 2026-04-30 10:48 | 7.03292 | 125.53914 | 3672 ft | 232 kts | 223° |
| 2026-04-30 10:48 | 7.01909 | 125.53132 | 3474 ft | 231 kts | 193° |
| 2026-04-30 10:48 | 7.00331 | 125.52865 | 3330 ft | 227 kts | 185° |
| 2026-04-30 10:49 | 6.97101 | 125.52540 | 3135 ft | 222 kts | 190° |
| 2026-04-30 10:49 | 6.95755 | 125.51866 | 2979 ft | 216 kts | 232° |
| 2026-04-30 10:49 | 6.95206 | 125.50506 | 2845 ft | 207 kts | 270° |
| 2026-04-30 10:49 | 6.95448 | 125.49110 | 2725 ft | 198 kts | 297° |
| 2026-04-30 10:50 | 6.96334 | 125.48129 | 2599 ft | 186 kts | 336° |
| 2026-04-30 10:50 | 6.97572 | 125.47973 | 2455 ft | 177 kts | 17° |
| 2026-04-30 10:50 | 6.98637 | 125.48558 | 2309 ft | 170 kts | 40° |
| 2026-04-30 10:50 | 6.99482 | 125.49377 | 2245 ft | 167 kts | 48° |
| 2026-04-30 10:51 | 7.00263 | 125.50262 | 2238 ft | 169 kts | 50° |
| 2026-04-30 10:51 | 7.01031 | 125.51161 | 2242 ft | 169 kts | 50° |
| 2026-04-30 10:51 | 7.01786 | 125.52050 | 2220 ft | 159 kts | 50° |
| 2026-04-30 10:51 | 7.02499 | 125.52885 | 2216 ft | 154 kts | 50° |
| 2026-04-30 10:52 | 7.03202 | 125.53707 | 2224 ft | 154 kts | 50° |
| 2026-04-30 10:52 | 7.03910 | 125.54530 | 2230 ft | 154 kts | 50° |
| 2026-04-30 10:52 | 7.04632 | 125.55369 | 2149 ft | 152 kts | 49° |
| 2026-04-30 10:52 | 7.05326 | 125.56175 | 1956 ft | 151 kts | 49° |
| 2026-04-30 10:53 | 7.06017 | 125.56979 | 1764 ft | 150 kts | 49° |
| 2026-04-30 10:53 | 7.06708 | 125.57782 | 1572 ft | 150 kts | 49° |
| 2026-04-30 10:53 | 7.07397 | 125.58582 | 1381 ft | 149 kts | 49° |
| 2026-04-30 10:53 | 7.08082 | 125.59380 | 1185 ft | 149 kts | 49° |
| 2026-04-30 10:54 | 7.08767 | 125.60176 | 992 ft | 148 kts | 49° |
| 2026-04-30 10:54 | 7.09450 | 125.60971 | 798 ft | 148 kts | 49° |
| 2026-04-30 10:54 | 7.10134 | 125.61767 | 605 ft | 147 kts | 48° |
| 2026-04-30 10:54 | 7.10806 | 125.62547 | 412 ft | 147 kts | 48° |
| 2026-04-30 10:55 | 7.11485 | 125.63338 | 208 ft | 146 kts | 48° |
| 2026-04-30 10:55 | 7.12132 | 125.64101 | 124 ft | 134 kts | 45° |
| 2026-04-30 10:55 | 7.12602 | 125.64637 | 123 ft | 68 kts | 49° |
| 2026-04-30 10:55 | 7.12886 | 125.64965 | 123 ft | 58 kts | 49° |
| 2026-04-30 10:56 | 7.13107 | 125.65220 | 123 ft | 41 kts | 51° |
| 2026-04-30 10:56 | 7.13272 | 125.65418 | 123 ft | 24 kts | 49° |
| 2026-04-30 10:56 | 7.13378 | 125.65517 | 123 ft | 12 kts | 10° |
| 2026-04-30 10:56 | 7.13436 | 125.65524 | 123 ft | 7 kts | 31° |
| 2026-04-30 10:57 | 7.13436 | 125.65561 | 123 ft | 5 kts | 149° |
| 2026-04-30 10:57 | 7.13392 | 125.65550 | 123 ft | 8 kts | 216° |
| 2026-04-30 10:57 | 7.13343 | 125.65499 | 123 ft | 11 kts | 230° |
| 2026-04-30 10:57 | 7.13274 | 125.65420 | 123 ft | 18 kts | 229° |
| 2026-04-30 10:58 | 7.13180 | 125.65311 | 123 ft | 21 kts | 230° |
| 2026-04-30 10:58 | 7.13075 | 125.65189 | 123 ft | 22 kts | 230° |
| 2026-04-30 10:58 | 7.12972 | 125.65067 | 123 ft | 22 kts | 230° |
| 2026-04-30 10:58 | 7.12878 | 125.64960 | 123 ft | 19 kts | 229° |
| 2026-04-30 10:59 | 7.12787 | 125.64857 | 123 ft | 19 kts | 230° |
| 2026-04-30 10:59 | 7.12698 | 125.64752 | 123 ft | 19 kts | 230° |
| 2026-04-30 10:59 | 7.12612 | 125.64650 | 123 ft | 16 kts | 229° |
| 2026-04-30 10:59 | 7.12569 | 125.64570 | 123 ft | 11 kts | 287° |
| 2026-04-30 11:00 | 7.12620 | 125.64514 | 123 ft | 9 kts | 318° |
| 2026-04-30 11:00 | 7.12664 | 125.64475 | 123 ft | 4 kts | 319° |
| 2026-04-30 11:00 | 7.12698 | 125.64451 | 123 ft | 7 kts | 334° |
| 2026-04-30 11:00 | 7.12747 | 125.64462 | 123 ft | 8 kts | 47° |
| 2026-04-30 11:01 | 7.12792 | 125.64513 | 123 ft | 10 kts | 49° |
| 2026-04-30 11:01 | 7.12841 | 125.64570 | 123 ft | 11 kts | 50° |
| 2026-04-30 11:01 | 7.12890 | 125.64603 | 123 ft | 4 kts | 343° |
| 2026-04-30 11:01 | 7.12916 | 125.64578 | 123 ft | 5 kts | 315° |
| 2026-04-30 11:02 | 7.12947 | 125.64551 | 123 ft | 0 kts | 319° |